PAMD METAR and TAF weather

Enter ICAO airport designator
Station Type Date Time Source
PAMD METAR 2021/01/20 22:04 UTC NOAA

PAMD 202204Z AUTO 15011KT 7SM -RA FEW004 BKN010 OVC015 04/04 A3012 RMK AO2 RAB2154 CIG 007V014 P0000


Station Type Date Time Source
PAMD Decoded METAR 2021/01/20 22:04 UTC NOAA

Middleton Island, Middleton Island Airport, AK, United States (PAMD) 59-26N 146-18W 14M
Jan 20, 2021 - 05:04 PM EST / 2021.01.20 2204 UTC
Wind: from the SSE (150 degrees) at 13 MPH (11 KT):0
Visibility: 7 mile(s):0
Sky conditions: overcast
Weather: light rain
Precipitation last hour: A trace
Temperature: 39 F (4 C)
Dew Point: 39 F (4 C)
Relative Humidity: 100%
Pressure (altimeter): 30.12 in. Hg (1019 hPa)
ob: PAMD 202204Z AUTO 15011KT 7SM -RA FEW004 BKN010 OVC015 04/04 A3012 RMK AO2 RAB2154 CIG 007V014 P0000
cycle: 22

Station Type Date Time Source
PAMD TAF UTC NOAA

Error!

Example: see airport list